Terminal Aerodrome Forecast
Issued by NWS

Home | Current Version | Previous Version | Text Only | Print | Product List | Glossary On
Versions: 1 2 3 4 5 6 7 8 9 10 11 12 13 14 15 16 17 18 19 20 21 22
000
FTUS43 KDVN 281700
TAFBRL
TAF
KBRL 281740Z 2818/2918 16016G25KT P6SM BKN250
     FM290300 15013KT 6SM BR BKN035
     FM290900 30014G20KT P6SM SCT010 OVC015
     FM291400 32020G28KT P6SM OVC020=

USA.gov is the U.S. government's official web portal to all federal, state and local government web resources and services.